createdAt,value
2023-04-22T00:00:15.597Z,7.97
2023-04-22T00:02:42.319Z,9.73
2023-04-22T00:05:10.024Z,9.55
2023-04-22T00:07:36.553Z,8.65
2023-04-22T00:10:03.249Z,7.90
2023-04-22T00:12:29.782Z,12.05
2023-04-22T00:14:56.292Z,10.95
2023-04-22T00:17:22.872Z,11.38
2023-04-22T00:19:49.393Z,13.80
2023-04-22T00:22:15.885Z,12.43
2023-04-22T00:24:42.592Z,12.05
2023-04-22T00:27:09.095Z,12.18
2023-04-22T00:29:35.843Z,10.93
2023-04-22T00:32:02.550Z,9.30
2023-04-22T00:34:29.176Z,9.80
2023-04-22T00:36:55.802Z,13.55
2023-04-22T00:39:22.446Z,8.90
2023-04-22T00:41:49.996Z,9.73
2023-04-22T00:44:18.141Z,9.35
2023-04-22T00:46:45.252Z,9.40
2023-04-22T00:49:11.812Z,8.18
2023-04-22T00:51:38.377Z,9.82
2023-04-22T00:54:05.103Z,9.90
2023-04-22T00:56:33.512Z,11.98
2023-04-22T00:59:00.133Z,10.57
2023-04-22T01:01:27.076Z,11.23
2023-04-22T01:03:54.302Z,12.50
2023-04-22T01:06:23.841Z,15.73
2023-04-22T01:08:50.602Z,12.23
2023-04-22T01:11:17.122Z,12.90
2023-04-22T01:13:43.603Z,16.10
2023-04-22T01:16:10.540Z,12.20
2023-04-22T01:18:37.354Z,15.90
2023-04-22T01:21:04.358Z,14.32
2023-04-22T01:23:30.949Z,13.90
2023-04-22T01:25:57.676Z,12.73
2023-04-22T01:28:24.892Z,14.77
2023-04-22T01:30:52.102Z,14.10
2023-04-22T01:33:18.871Z,12.48
2023-04-22T01:35:45.784Z,15.88
2023-04-22T01:38:13.157Z,15.05
2023-04-22T01:40:40.120Z,14.25
2023-04-22T01:43:06.789Z,16.70
2023-04-22T01:45:33.984Z,18.08
2023-04-22T01:48:00.689Z,17.45
2023-04-22T01:50:27.327Z,16.58
2023-04-22T01:52:53.909Z,20.15
2023-04-22T01:55:20.442Z,19.55
2023-04-22T01:57:46.978Z,17.65
2023-04-22T02:00:13.803Z,17.20
2023-04-22T02:02:40.466Z,20.27
2023-04-22T02:05:07.927Z,19.67
2023-04-22T02:07:34.621Z,16.58
2023-04-22T02:10:01.176Z,15.10
2023-04-22T02:12:27.663Z,15.80
2023-04-22T02:14:54.185Z,15.60
2023-04-22T02:17:20.693Z,17.25
2023-04-22T02:19:47.286Z,17.77
2023-04-22T02:22:13.844Z,14.73
2023-04-22T02:24:40.307Z,15.00
2023-04-22T02:27:06.897Z,16.77
2023-04-22T02:29:33.442Z,14.27
2023-04-22T02:32:00.214Z,16.42
2023-04-22T02:34:27.021Z,19.80
2023-04-22T02:36:53.588Z,18.58
2023-04-22T02:39:20.245Z,15.40
2023-04-22T02:41:46.773Z,16.88
2023-04-22T02:44:13.295Z,15.05
2023-04-22T02:46:39.892Z,16.95
2023-04-22T02:49:06.490Z,13.18
2023-04-22T02:51:33.166Z,14.85
2023-04-22T02:53:59.722Z,16.35
2023-04-22T02:56:26.232Z,15.55
2023-04-22T02:58:52.768Z,16.33
2023-04-22T03:01:19.315Z,13.85
2023-04-22T03:03:46.127Z,16.98
2023-04-22T03:06:12.753Z,15.10
2023-04-22T03:08:39.286Z,15.63
2023-04-22T03:11:05.918Z,13.95
2023-04-22T03:13:32.419Z,16.60
2023-04-22T03:15:58.906Z,16.10
2023-04-22T03:18:25.380Z,17.52
2023-04-22T03:20:51.909Z,14.50
2023-04-22T03:23:18.448Z,16.42
2023-04-22T03:25:45.034Z,15.00
2023-04-22T03:28:11.620Z,14.00
2023-04-22T03:30:38.169Z,16.90
2023-04-22T03:33:04.809Z,16.30
2023-04-22T03:35:31.390Z,14.80
2023-04-22T03:37:57.928Z,15.27
2023-04-22T03:40:24.454Z,15.75
2023-04-22T03:42:50.966Z,14.32
2023-04-22T03:45:17.499Z,16.13
2023-04-22T03:47:44.067Z,14.65
2023-04-22T03:50:11.012Z,14.20
2023-04-22T03:52:37.539Z,13.77
2023-04-22T03:55:04.303Z,14.57
2023-04-22T03:57:30.767Z,16.48
2023-04-22T03:59:57.266Z,13.38
2023-04-22T04:02:23.882Z,13.63
2023-04-22T04:04:50.704Z,15.95
2023-04-22T04:07:17.567Z,16.05
2023-04-22T04:09:44.080Z,16.38
2023-04-22T04:12:10.567Z,14.00
2023-04-22T04:14:37.065Z,12.98
2023-04-22T04:17:03.577Z,14.95
2023-04-22T04:19:30.152Z,13.55
2023-04-22T04:21:56.651Z,14.40
2023-04-22T04:24:23.143Z,14.95
2023-04-22T04:26:49.695Z,15.52
2023-04-22T04:29:16.257Z,15.52
2023-04-22T04:31:42.918Z,11.88
2023-04-22T04:34:09.597Z,12.75
2023-04-22T04:36:36.270Z,13.98
2023-04-22T04:39:02.903Z,13.02
2023-04-22T04:41:29.390Z,12.93
2023-04-22T04:43:55.902Z,16.55
2023-04-22T04:46:22.402Z,15.38
2023-04-22T04:48:48.940Z,15.98
2023-04-22T04:51:15.956Z,18.60
2023-04-22T04:53:42.642Z,16.02
2023-04-22T04:56:09.163Z,15.88
2023-04-22T04:58:35.634Z,19.27
2023-04-22T05:01:02.170Z,17.52
2023-04-22T05:03:28.844Z,19.27
2023-04-22T05:05:56.299Z,17.58
2023-04-22T05:08:22.783Z,16.75
2023-04-22T05:10:49.355Z,16.23
2023-04-22T05:13:15.860Z,18.48
2023-04-22T05:15:42.414Z,17.77
2023-04-22T05:18:08.986Z,14.95
2023-04-22T05:20:36.223Z,15.65
2023-04-22T05:23:02.919Z,15.98
2023-04-22T05:25:29.456Z,14.25
2023-04-22T05:27:56.058Z,13.52
2023-04-22T05:30:22.550Z,12.95
2023-04-22T05:32:51.448Z,16.13
2023-04-22T05:35:18.110Z,11.75
2023-04-22T05:37:44.590Z,14.18
2023-04-22T05:40:11.303Z,8.75
2023-04-22T05:42:37.881Z,10.98
2023-04-22T05:45:04.761Z,10.65
2023-04-22T05:47:31.345Z,9.10
2023-04-22T05:49:57.870Z,9.27
2023-04-22T05:52:24.440Z,10.93
2023-04-22T05:54:50.949Z,9.00
2023-04-22T05:57:17.509Z,37.13
2023-04-22T05:59:44.030Z,61.03
2023-04-22T06:02:13.181Z,66.38
2023-04-22T06:04:41.302Z,47.28
2023-04-22T06:07:08.168Z,98.00
2023-04-22T06:09:34.741Z,79.75
2023-04-22T06:12:01.274Z,40.08
2023-04-22T06:14:27.995Z,13.73
2023-04-22T06:16:54.496Z,9.93
2023-04-22T06:19:20.973Z,9.25
2023-04-22T06:21:47.549Z,8.88
2023-04-22T06:24:14.026Z,8.93
2023-04-22T06:26:40.545Z,8.85
2023-04-22T06:29:07.098Z,7.22
2023-04-22T06:31:33.847Z,7.55
2023-04-22T06:34:00.393Z,7.53
2023-04-22T06:36:29.715Z,9.20
2023-04-22T06:38:57.008Z,7.95
2023-04-22T06:41:23.744Z,8.30
2023-04-22T06:43:50.281Z,8.57
2023-04-22T06:46:17.539Z,8.73
2023-04-22T06:48:44.072Z,6.88
2023-04-22T06:51:10.629Z,6.65
2023-04-22T06:53:37.101Z,7.00
2023-04-22T06:56:04.395Z,6.82
2023-04-22T06:58:30.861Z,6.75
2023-04-22T07:00:57.387Z,6.82
2023-04-22T07:03:24.226Z,6.57
2023-04-22T07:05:50.931Z,6.20
2023-04-22T07:08:17.498Z,6.85
2023-04-22T07:10:44.000Z,5.78
2023-04-22T07:13:10.484Z,8.00
2023-04-22T07:15:36.998Z,7.15
2023-04-22T07:18:03.639Z,6.07
2023-04-22T07:20:30.118Z,6.15
2023-04-22T07:22:56.584Z,6.70
2023-04-22T07:25:23.070Z,7.43
2023-04-22T07:27:49.595Z,10.13
2023-04-22T07:30:16.143Z,8.05
2023-04-22T07:32:42.710Z,11.70
2023-04-22T07:35:09.501Z,17.90
2023-04-22T07:37:36.078Z,5.70
2023-04-22T07:40:02.597Z,5.95
2023-04-22T07:42:29.160Z,7.88
2023-04-22T07:44:55.658Z,11.32
2023-04-22T07:47:22.173Z,6.55
2023-04-22T07:49:48.676Z,10.77
2023-04-22T07:52:15.201Z,29.80
2023-04-22T07:54:41.675Z,6.25
2023-04-22T07:57:08.158Z,7.50
2023-04-22T07:59:34.633Z,8.75
2023-04-22T08:02:01.178Z,16.00
2023-04-22T08:04:28.045Z,5.25
2023-04-22T08:06:54.805Z,4.80
2023-04-22T08:09:21.357Z,5.43
2023-04-22T08:11:47.863Z,48.65
2023-04-22T08:14:14.384Z,59.83
2023-04-22T08:16:42.856Z,5.68
2023-04-22T08:19:09.347Z,5.53
2023-04-22T08:21:35.857Z,4.85
2023-04-22T08:24:02.751Z,6.20
2023-04-22T08:26:29.442Z,6.25
2023-04-22T08:28:55.981Z,10.70
2023-04-22T08:31:22.744Z,6.13
2023-04-22T08:33:49.345Z,15.18
2023-04-22T08:36:15.942Z,5.72
2023-04-22T08:38:42.648Z,6.00
2023-04-22T08:41:10.157Z,5.05
2023-04-22T08:43:36.710Z,8.95
2023-04-22T08:46:03.609Z,14.05
2023-04-22T08:48:30.304Z,14.07
2023-04-22T08:50:58.579Z,19.15
2023-04-22T08:53:26.531Z,17.30
2023-04-22T08:55:56.596Z,20.95
2023-04-22T08:58:24.002Z,25.17
2023-04-22T09:00:50.919Z,4.22
2023-04-22T09:03:18.332Z,5.38
2023-04-22T09:05:46.296Z,6.00
2023-04-22T09:08:14.287Z,45.65
2023-04-22T09:10:43.856Z,4.68
2023-04-22T09:13:13.798Z,4.20
2023-04-22T09:15:40.343Z,4.80
2023-04-22T09:18:09.663Z,6.15
2023-04-22T09:20:36.185Z,4.30
2023-04-22T09:23:04.409Z,4.38
2023-04-22T09:25:33.393Z,4.60
2023-04-22T09:27:59.974Z,5.15
2023-04-22T09:30:34.203Z,5.10
2023-04-22T09:33:02.951Z,4.60
2023-04-22T09:35:31.625Z,5.40
2023-04-22T09:38:00.113Z,3.83
2023-04-22T09:40:27.633Z,3.95
2023-04-22T09:42:56.263Z,5.97
2023-04-22T09:45:34.072Z,5.40
2023-04-22T09:48:08.286Z,5.22
2023-04-22T09:50:35.232Z,4.22
2023-04-22T09:53:07.158Z,4.70
2023-04-22T09:55:37.045Z,4.25
2023-04-22T09:58:11.186Z,6.35
2023-04-22T10:00:42.668Z,4.72
2023-04-22T10:03:10.927Z,4.15
2023-04-22T10:05:37.856Z,4.30
2023-04-22T10:08:05.363Z,4.13
2023-04-22T10:10:32.580Z,4.72
2023-04-22T10:13:00.198Z,4.07
2023-04-22T10:15:31.632Z,4.97
2023-04-22T10:17:59.677Z,4.53
2023-04-22T10:20:29.155Z,3.88
2023-04-22T10:22:56.621Z,3.80
2023-04-22T10:25:24.742Z,4.57
2023-04-22T10:28:04.870Z,4.55
2023-04-22T10:30:35.263Z,4.10
2023-04-22T10:33:20.437Z,5.22
2023-04-22T10:36:05.660Z,4.63
2023-04-22T10:38:40.162Z,4.90
2023-04-22T10:41:13.891Z,4.35
2023-04-22T10:43:41.818Z,4.20
2023-04-22T10:46:28.322Z,4.38
2023-04-22T10:48:57.437Z,5.45
2023-04-22T10:51:45.584Z,6.60
2023-04-22T10:54:29.570Z,3.88
2023-04-22T10:57:09.356Z,4.05
2023-04-22T10:59:50.479Z,4.72
2023-04-22T11:02:18.233Z,4.20
2023-04-22T11:04:45.270Z,11.07
2023-04-22T11:07:20.777Z,9.52
2023-04-22T11:09:52.458Z,4.53
2023-04-22T11:12:37.266Z,9.00
2023-04-22T11:15:09.941Z,7.18
2023-04-22T11:17:37.960Z,5.63
2023-04-22T11:20:06.538Z,6.28
2023-04-22T11:22:37.098Z,5.47
2023-04-22T11:25:05.564Z,5.90
2023-04-22T11:27:32.602Z,5.75
2023-04-22T11:30:03.324Z,6.43
2023-04-22T11:32:30.348Z,6.07
2023-04-22T11:34:57.865Z,6.88
2023-04-22T11:37:24.862Z,7.10
2023-04-22T11:42:22.703Z,5.20
2023-04-22T11:44:50.395Z,11.25
2023-04-22T11:47:17.340Z,6.45
2023-04-22T11:49:55.567Z,7.65
2023-04-22T11:52:22.126Z,9.55
2023-04-22T11:54:48.643Z,5.72
2023-04-22T11:57:15.214Z,6.93
2023-04-22T11:59:42.641Z,4.63
2023-04-22T12:02:09.963Z,5.93
2023-04-22T12:04:40.108Z,6.60
2023-04-22T12:07:06.973Z,4.47
2023-04-22T12:09:34.212Z,4.55
2023-04-22T12:12:03.790Z,5.40
2023-04-22T12:14:36.954Z,6.60
2023-04-22T12:17:04.586Z,4.75
2023-04-22T12:19:31.376Z,6.53
2023-04-22T12:21:58.031Z,4.40
2023-04-22T12:24:28.321Z,6.70
2023-04-22T12:26:55.023Z,5.50
2023-04-22T12:29:30.934Z,4.50
2023-04-22T12:31:57.438Z,8.38
2023-04-22T12:34:23.963Z,3.83
2023-04-22T12:36:50.540Z,4.03
2023-04-22T12:39:17.124Z,3.95
2023-04-22T12:41:43.600Z,4.13
2023-04-22T12:44:10.130Z,3.83
2023-04-22T12:46:36.786Z,3.55
2023-04-22T12:49:03.295Z,4.53
2023-04-22T12:51:29.803Z,5.60
2023-04-22T12:53:56.297Z,4.15
2023-04-22T12:56:22.827Z,3.65
2023-04-22T12:58:49.324Z,3.88
2023-04-22T13:01:15.893Z,3.22
2023-04-22T13:03:42.552Z,3.80
2023-04-22T13:06:09.195Z,5.00
2023-04-22T13:08:35.727Z,3.92
2023-04-22T13:11:02.272Z,3.08
2023-04-22T13:13:28.788Z,3.58
2023-04-22T13:15:55.696Z,4.07
2023-04-22T13:18:22.864Z,4.50
2023-04-22T13:20:49.399Z,4.50
2023-04-22T13:23:15.943Z,3.20
2023-04-22T13:25:42.495Z,4.45
2023-04-22T13:28:09.011Z,3.38
2023-04-22T13:30:36.224Z,3.00
2023-04-22T13:33:02.843Z,3.70
2023-04-22T13:35:29.497Z,4.15
2023-04-22T13:37:56.182Z,4.05
2023-04-22T13:40:22.679Z,3.75
2023-04-22T13:42:49.289Z,9.52
2023-04-22T13:45:15.785Z,3.53
2023-04-22T13:47:42.346Z,3.90
2023-04-22T13:50:09.285Z,3.83
2023-04-22T13:52:35.888Z,3.83
2023-04-22T13:55:05.989Z,4.07
2023-04-22T13:57:32.511Z,6.47
2023-04-22T13:59:59.219Z,4.47
2023-04-22T14:02:25.855Z,4.35
2023-04-22T14:04:52.460Z,3.60
2023-04-22T14:07:19.091Z,3.20
2023-04-22T14:09:45.587Z,5.22
2023-04-22T14:12:12.150Z,4.82
2023-04-22T14:14:38.630Z,5.30
2023-04-22T14:17:05.244Z,3.20
2023-04-22T14:19:31.861Z,2.67
2023-04-22T14:21:58.388Z,2.35
2023-04-22T14:24:25.360Z,3.10
2023-04-22T14:26:52.256Z,4.25
2023-04-22T14:29:18.820Z,3.28
2023-04-22T14:31:45.584Z,2.40
2023-04-22T14:34:12.135Z,2.30
2023-04-22T14:36:38.629Z,2.30
2023-04-22T14:39:05.127Z,2.50
2023-04-22T14:41:31.746Z,3.00
2023-04-22T14:43:58.328Z,2.22
2023-04-22T14:46:24.896Z,2.42
2023-04-22T14:48:51.377Z,2.75
2023-04-22T14:51:17.993Z,3.58
2023-04-22T14:53:44.551Z,2.70
2023-04-22T14:56:11.026Z,3.08
2023-04-22T14:58:37.691Z,2.38
2023-04-22T15:01:05.204Z,2.15
2023-04-22T15:03:33.652Z,3.63
2023-04-22T15:06:00.321Z,2.97
2023-04-22T15:08:26.894Z,2.35
2023-04-22T15:10:53.425Z,3.08
2023-04-22T15:13:19.927Z,2.60
2023-04-22T15:15:46.529Z,2.78
2023-04-22T15:18:13.111Z,2.58
2023-04-22T15:20:40.225Z,2.33
2023-04-22T15:23:06.736Z,2.40
2023-04-22T15:25:33.305Z,1.77
2023-04-22T15:27:59.848Z,2.53
2023-04-22T15:30:26.486Z,3.25
2023-04-22T15:32:53.014Z,2.90
2023-04-22T15:35:19.645Z,2.45
2023-04-22T15:37:46.182Z,3.03
2023-04-22T15:40:12.733Z,2.80
2023-04-22T15:42:39.205Z,3.35
2023-04-22T15:45:06.462Z,3.10
2023-04-22T15:47:34.145Z,3.80
2023-04-22T15:50:00.648Z,3.38
2023-04-22T15:52:27.146Z,3.22
2023-04-22T15:54:53.693Z,3.95
2023-04-22T15:57:20.152Z,3.30
2023-04-22T15:59:49.522Z,3.80
2023-04-22T16:02:18.216Z,3.22
2023-04-22T16:04:44.946Z,2.70
2023-04-22T16:07:11.535Z,4.35
2023-04-22T16:09:38.259Z,3.63
2023-04-22T16:12:05.045Z,3.90
2023-04-22T16:14:31.570Z,4.43
2023-04-22T16:16:58.155Z,3.58
2023-04-22T16:19:24.766Z,3.50
2023-04-22T16:21:51.307Z,4.50
2023-04-22T16:24:17.782Z,3.53
2023-04-22T16:26:44.300Z,4.30
2023-04-22T16:29:11.180Z,4.55
2023-04-22T16:31:37.769Z,3.78
2023-04-22T16:34:04.579Z,4.05
2023-04-22T16:36:31.086Z,3.50
2023-04-22T16:38:57.696Z,6.25
2023-04-22T16:41:24.230Z,3.13
2023-04-22T16:43:51.840Z,3.67
2023-04-22T16:46:18.433Z,5.70
2023-04-22T16:48:45.039Z,5.20
2023-04-22T16:51:11.583Z,4.78
2023-04-22T16:53:38.170Z,4.00
2023-04-22T16:56:04.862Z,4.47
2023-04-22T16:58:31.387Z,3.95
2023-04-22T17:00:57.921Z,5.00
2023-04-22T17:03:25.155Z,5.40
2023-04-22T17:05:51.767Z,4.30
2023-04-22T17:08:18.281Z,5.75
2023-04-22T17:10:45.054Z,4.50
2023-04-22T17:13:12.754Z,4.88
2023-04-22T17:15:39.564Z,3.80
2023-04-22T17:18:06.255Z,3.95
2023-04-22T17:20:32.812Z,4.47
2023-04-22T17:22:59.382Z,3.50
2023-04-22T17:25:25.902Z,4.38
2023-04-22T17:27:52.391Z,4.10
2023-04-22T17:30:19.028Z,3.83
2023-04-22T17:32:45.551Z,3.97
2023-04-22T17:35:12.101Z,4.20
2023-04-22T17:37:38.952Z,5.03
2023-04-22T17:40:07.107Z,5.28
2023-04-22T17:42:44.660Z,3.30
2023-04-22T17:45:12.208Z,4.43
2023-04-22T17:47:38.851Z,5.00
2023-04-22T17:50:05.795Z,4.00
2023-04-22T17:52:32.430Z,4.25
2023-04-22T17:55:00.035Z,4.75
2023-04-22T17:57:26.587Z,4.40
2023-04-22T17:59:53.076Z,5.60
2023-04-22T18:02:19.699Z,4.60
2023-04-22T18:04:46.387Z,4.20
2023-04-22T18:07:12.944Z,3.35
2023-04-22T18:09:39.611Z,5.32
2023-04-22T18:12:06.311Z,5.65
2023-04-22T18:14:32.892Z,6.10
2023-04-22T18:16:59.487Z,5.28
2023-04-22T18:19:26.083Z,5.63
2023-04-22T18:21:59.602Z,6.90
2023-04-22T18:24:27.349Z,6.20
2023-04-22T18:26:53.870Z,7.80
2023-04-22T18:29:20.406Z,7.65
2023-04-22T18:31:46.940Z,9.35
2023-04-22T18:34:13.476Z,9.65
2023-04-22T18:36:39.977Z,10.80
2023-04-22T18:39:06.499Z,9.93
2023-04-22T18:41:33.042Z,8.77
2023-04-22T18:43:59.534Z,12.52
2023-04-22T18:46:26.101Z,11.68
2023-04-22T18:48:52.641Z,11.85
2023-04-22T18:51:19.184Z,13.15
2023-04-22T18:53:45.823Z,14.15
2023-04-22T18:56:12.927Z,12.13
2023-04-22T18:58:39.434Z,13.40
2023-04-22T19:01:06.748Z,16.80
2023-04-22T19:03:33.427Z,16.83
2023-04-22T19:05:59.989Z,14.45
2023-04-22T19:08:26.489Z,17.73
2023-04-22T19:10:52.986Z,15.13
2023-04-22T19:13:29.355Z,14.23
2023-04-22T19:15:57.333Z,16.83
2023-04-22T19:18:24.040Z,17.35
2023-04-22T19:20:50.658Z,17.52
2023-04-22T19:23:17.303Z,14.90
2023-04-22T19:25:43.792Z,16.98
2023-04-22T19:28:10.415Z,16.73
2023-04-22T19:30:36.994Z,15.68
2023-04-22T19:33:03.639Z,14.27
2023-04-22T19:35:30.245Z,14.75
2023-04-22T19:37:56.769Z,12.10
2023-04-22T19:40:23.234Z,12.93
2023-04-22T19:42:49.685Z,14.15
2023-04-22T19:45:16.165Z,12.30
2023-04-22T19:47:42.984Z,12.00
2023-04-22T19:50:10.284Z,12.85
2023-04-22T19:52:37.059Z,17.52
2023-04-22T19:55:06.823Z,13.20
2023-04-22T20:00:01.613Z,12.75
2023-04-22T20:02:28.524Z,15.18
2023-04-22T20:04:55.264Z,13.85
2023-04-22T20:07:22.388Z,12.75
2023-04-22T20:09:50.918Z,16.15
2023-04-22T20:12:17.671Z,14.10
2023-04-22T20:14:44.239Z,13.40
2023-04-22T20:17:10.957Z,15.90
2023-04-22T20:19:37.578Z,16.98
2023-04-22T20:22:06.333Z,15.43
2023-04-22T20:24:36.578Z,13.48
2023-04-22T20:27:04.177Z,15.18
2023-04-22T20:29:30.717Z,15.32
2023-04-22T20:31:57.544Z,15.32
2023-04-22T20:34:24.261Z,13.40
2023-04-22T20:36:51.158Z,15.50
2023-04-22T20:39:18.070Z,17.73
2023-04-22T20:41:45.489Z,16.27
2023-04-22T20:44:12.014Z,16.25
2023-04-22T20:46:38.560Z,16.20
2023-04-22T20:49:05.046Z,13.52
2023-04-22T20:51:31.558Z,14.93
2023-04-22T20:53:58.073Z,16.00
2023-04-22T20:56:24.635Z,15.15
2023-04-22T20:58:51.099Z,19.20
2023-04-22T21:01:17.698Z,18.77
2023-04-22T21:03:50.443Z,15.43
2023-04-22T21:06:19.120Z,16.85
2023-04-22T21:08:50.215Z,16.35
2023-04-22T21:11:17.443Z,17.33
2023-04-22T21:13:44.355Z,20.60
2023-04-22T21:16:12.762Z,20.23
2023-04-22T21:18:42.974Z,18.58
2023-04-22T21:21:10.137Z,17.30
2023-04-22T21:23:37.139Z,16.77
2023-04-22T21:26:04.407Z,16.48
2023-04-22T21:28:31.238Z,17.77
2023-04-22T21:30:57.993Z,17.85
2023-04-22T21:33:24.568Z,14.73
2023-04-22T21:35:51.211Z,17.05
2023-04-22T21:38:17.941Z,16.27
2023-04-22T21:40:44.528Z,17.35
2023-04-22T21:43:11.122Z,19.17
2023-04-22T21:45:37.652Z,16.17
2023-04-22T21:48:04.264Z,18.27
2023-04-22T21:50:31.404Z,17.25
2023-04-22T21:52:58.409Z,17.52
2023-04-22T21:55:24.980Z,19.73
2023-04-22T21:57:51.618Z,19.63
2023-04-22T22:00:18.156Z,19.42
2023-04-22T22:02:45.859Z,18.70
2023-04-22T22:05:15.150Z,20.00
2023-04-22T22:07:42.601Z,16.85
2023-04-22T22:10:12.284Z,18.48
2023-04-22T22:12:38.792Z,19.92
2023-04-22T22:15:05.944Z,20.10
2023-04-22T22:17:32.510Z,17.13
2023-04-22T22:19:59.082Z,18.95
2023-04-22T22:22:25.722Z,19.00
2023-04-22T22:24:52.390Z,20.00
2023-04-22T22:27:19.300Z,19.17
2023-04-22T22:29:45.798Z,23.38
2023-04-22T22:32:12.677Z,21.27
2023-04-22T22:34:39.438Z,19.83
2023-04-22T22:37:06.129Z,18.35
2023-04-22T22:39:32.792Z,20.98
2023-04-22T22:41:59.339Z,24.92
2023-04-22T22:44:25.878Z,22.80
2023-04-22T22:46:52.549Z,20.95
2023-04-22T22:49:19.064Z,19.67
2023-04-22T22:51:45.665Z,18.52
2023-04-22T22:54:12.229Z,20.73
2023-04-22T22:56:38.762Z,20.35
2023-04-22T22:59:05.327Z,22.40
2023-04-22T23:01:32.089Z,21.95
2023-04-22T23:03:58.995Z,20.48
2023-04-22T23:06:25.683Z,21.77
2023-04-22T23:08:52.235Z,21.13
2023-04-22T23:11:18.887Z,19.88
2023-04-22T23:13:45.436Z,21.52
2023-04-22T23:16:12.084Z,21.00
2023-04-22T23:18:39.540Z,20.20
2023-04-22T23:23:51.006Z,18.67
2023-04-22T23:26:17.761Z,20.27
2023-04-22T23:28:44.660Z,21.40
2023-04-22T23:31:17.156Z,22.17
2023-04-22T23:33:45.304Z,20.75
2023-04-22T23:36:14.371Z,23.00
2023-04-22T23:38:41.004Z,23.27
2023-04-22T23:41:07.540Z,22.83
2023-04-22T23:43:34.063Z,21.52
2023-04-22T23:46:00.646Z,22.85
2023-04-22T23:48:27.187Z,22.88
2023-04-22T23:50:53.760Z,23.65
2023-04-22T23:53:20.295Z,20.75
2023-04-22T23:55:47.116Z,21.25
2023-04-22T23:58:13.828Z,22.33
